Perulpa — 29145QE — position and weather

sailwx.info

Track history (hours):
 
Tides and Currents Weather Stations Pressure Air Temp Water Temp Dewpoint Dewpoint Depression Visibility Wind Speed Wind Dir Waves Ship Positions

Perulpa

Last reported at 2018-Apr-26 09:15 UTC. Time now 2018-Apr-26 19:09 UTC.
Position S 27°38' E 153°23'.

Length 24 m.

Type: Passenger vessel. MMSI: 503701100.

Date/timePositionNaut miles runAvg speedWind from/ knotsBaromVisibWave heightAir tempDewpointWater temp
2018-Apr-26 09:15S 27°38' E 153°23'2 2.8
2018-Apr-26 08:29S 27°39' E 153°21'0 0.5
2018-Apr-26 08:00S 27°38' E 153°21'0 0.7
2018-Apr-26 07:29S 27°39' E 153°21'2 0.6
2018-Apr-26 04:44S 27°38' E 153°19'2 5.2
2018-Apr-26 04:23S 27°38' E 153°21'1 0.2
2018-Apr-26 01:09S 27°38' E 153°21'0 1.0
2018-Apr-26 00:41S 27°39' E 153°21'1 5.9
2018-Apr-26 00:29S 27°38' E 153°22'3 2.8
2018-Apr-25 23:24S 27°37' E 153°19'3 8.7
2018-Apr-25 23:00S 27°38' E 153°23'3 5.0
2018-Apr-25 22:18S 27°37' E 153°19'3 8.3
2018-Apr-25 21:54S 27°38' E 153°23'2 0.1
2018-Apr-25 07:54S 27°39' E 153°21'1 1.0
2018-Apr-25 07:10S 27°39' E 153°22'0 1.4
2018-Apr-25 06:50S 27°38' E 153°22'1 0.3
2018-Apr-25 04:25S 27°39' E 153°21'1 0.8
2018-Apr-25 03:17S 27°38' E 153°22'1 0.2
2018-Apr-24 23:39S 27°38' E 153°21'1 4.8
2018-Apr-24 23:24S 27°38' E 153°22'0 0.1
2018-Apr-24 21:56S 27°38' E 153°22'0 0.0
2018-Apr-24 09:13S 27°38' E 153°22'2 6.3
2018-Apr-24 08:57S 27°38' E 153°21'0 0.3
2018-Apr-24 07:36S 27°39' E 153°21'110.6
2018-Apr-24 07:30S 27°38' E 153°22'1 2.3
2018-Apr-24 06:59S 27°38' E 153°21'1 2.2
2018-Apr-24 06:26S 27°39' E 153°22'1 1.4
2018-Apr-24 06:00S 27°38' E 153°21'1 1.5
2018-Apr-24 05:25S 27°38' E 153°22'2 2.9
2018-Apr-24 04:47S 27°38' E 153°20'2 1.0
2018-Apr-24 02:39S 27°38' E 153°22'1 0.9
2018-Apr-24 01:41S 27°38' E 153°21'2 5.5
2018-Apr-24 01:23S 27°38' E 153°23'4 7.4
2018-Apr-24 00:51S 27°37' E 153°19'4 8.7
2018-Apr-24 00:24S 27°38' E 153°23'1 1.1
2018-Apr-23 23:11S 27°39' E 153°22'2 8.4
2018-Apr-23 23:01S 27°38' E 153°23'2 2.3
2018-Apr-23 22:10S 27°38' E 153°21'2 9.2
2018-Apr-23 21:57S 27°38' E 153°23'4 6.1
2018-Apr-23 21:15S 27°37' E 153°19'3 9.3
2018-Apr-23 20:57S 27°38' E 153°22'0 0.0
2018-Apr-23 07:27S 27°38' E 153°21'1 1.6
2018-Apr-23 06:59S 27°39' E 153°21'2 3.2
2018-Apr-23 06:19S 27°38' E 153°23'2 5.6
2018-Apr-23 06:00S 27°38' E 153°21'1 1.2
2018-Apr-23 05:31S 27°39' E 153°21'1 1.9
2018-Apr-23 04:54S 27°38' E 153°22'1 0.6
2018-Apr-23 02:42S 27°38' E 153°23'2 6.0
2018-Apr-23 02:26S 27°38' E 153°22'1 1.1
2018-Apr-23 01:44S 27°39' E 153°21'1 1.2
2018-Apr-23 01:11S 27°39' E 153°22'1 0.9
2018-Apr-23 00:38S 27°38' E 153°21'0 3.4
2018-Apr-23 00:30S 27°38' E 153°22'1 0.5
2018-Apr-22 23:10S 27°38' E 153°22'1 2.5
2018-Apr-22 22:55S 27°38' E 153°22'1 1.9
2018-Apr-22 22:10S 27°39' E 153°21'1 4.7
2018-Apr-22 21:51S 27°38' E 153°22'1 1.3
2018-Apr-22 21:06S 27°38' E 153°21'2 0.1
2018-Apr-22 08:11S 27°38' E 153°23'1 0.8
2018-Apr-22 06:56S 27°38' E 153°22'1 0.8
2018-Apr-22 06:00S 27°39' E 153°22'3 5.4
2018-Apr-22 05:28S 27°37' E 153°19'3 5.4
2018-Apr-22 04:56S 27°38' E 153°22'0 0.8
2018-Apr-22 04:29S 27°38' E 153°22'0 0.5
2018-Apr-22 03:38S 27°38' E 153°21'1 2.0
2018-Apr-22 03:19S 27°38' E 153°22'1 1.4
2018-Apr-22 02:39S 27°39' E 153°21'210.7
2018-Apr-22 02:27S 27°38' E 153°24'2 2.8
2018-Apr-22 01:40S 27°39' E 153°21'1 3.9
2018-Apr-22 01:21S 27°38' E 153°22'3 5.3
2018-Apr-22 00:46S 27°37' E 153°19'413.4
2018-Apr-22 00:28S 27°39' E 153°23'2 2.2
2018-Apr-21 23:40S 27°39' E 153°21'1 4.7
2018-Apr-21 23:23S 27°38' E 153°22'1 1.3
2018-Apr-21 22:14S 27°39' E 153°21'1 5.4
2018-Apr-21 21:58S 27°38' E 153°22'2 2.2
2018-Apr-21 21:14S 27°39' E 153°21'2 7.5
2018-Apr-21 21:00S 27°38' E 153°23'1 0.1
2018-Apr-21 08:12S 27°38' E 153°23'2 6.3
2018-Apr-21 07:56S 27°38' E 153°22'0 0.4
2018-Apr-21 07:13S 27°38' E 153°21'1 4.3
2018-Apr-21 06:58S 27°38' E 153°22'2 1.0
2018-Apr-21 05:08S 27°38' E 153°20'1 9.8
2018-Apr-21 05:00S 27°38' E 153°22'0 0.1
2018-Apr-21 04:30S 27°38' E 153°22'1 1.3
2018-Apr-21 03:41S 27°39' E 153°21'210.5
2018-Apr-21 03:29S 27°38' E 153°23'1 1.7
2018-Apr-21 02:38S 27°39' E 153°22'0 1.0
2018-Apr-21 02:11S 27°38' E 153°22'1 1.5
2018-Apr-21 01:39S 27°39' E 153°21'1 5.3
2018-Apr-21 01:23S 27°38' E 153°22'2 1.5
2018-Apr-21 00:07S 27°38' E 153°20'1 2.3
2018-Apr-20 23:43S 27°39' E 153°21'2 7.3
2018-Apr-20 23:28S 27°39' E 153°23'4 3.9
2018-Apr-20 22:24S 27°37' E 153°19'3 7.6
2018-Apr-20 21:58S 27°38' E 153°22'3 5.3
2018-Apr-20 21:23S 27°37' E 153°19'410.9
2018-Apr-20 21:00S 27°38' E 153°23'  
2018-Apr-18 09:09S 27°38' E 153°22'1 7.2
2018-Apr-18 09:00S 27°38' E 153°21'0 0.2
2018-Apr-18 08:30S 27°38' E 153°21'1 1.1
2018-Apr-18 07:59S 27°38' E 153°21'0 0.8
2018-Apr-18 07:29S 27°39' E 153°21'0 0.2
2018-Apr-18 07:00S 27°39' E 153°21'1 1.5
2018-Apr-18 06:26S 27°38' E 153°22'1 2.4
2018-Apr-18 06:00S 27°39' E 153°21'0 0.3
2018-Apr-18 05:30S 27°39' E 153°21'1 2.2
2018-Apr-18 04:59S 27°38' E 153°22'1 1.8
2018-Apr-18 04:19S 27°39' E 153°21'2 1.3
2018-Apr-18 02:41S 27°38' E 153°23'1 6.6
2018-Apr-18 02:29S 27°38' E 153°22'1 0.9
2018-Apr-18 01:39S 27°39' E 153°21'1 6.1
2018-Apr-18 01:28S 27°38' E 153°22'1 1.4
2018-Apr-18 00:39S 27°39' E 153°21'2 6.8
2018-Apr-18 00:24S 27°38' E 153°23'2 1.4
2018-Apr-17 23:14S 27°39' E 153°21'1 4.8
2018-Apr-17 22:58S 27°38' E 153°22'1 1.8
2018-Apr-17 22:11S 27°39' E 153°21'2 7.5
2018-Apr-17 21:56S 27°38' E 153°23'2 2.5
2018-Apr-17 21:08S 27°39' E 153°21'1 7.2
2018-Apr-17 20:58S 27°38' E 153°22'1 0.1
2018-Apr-17 09:14S 27°38' E 153°23'2 7.5
2018-Apr-17 09:00S 27°38' E 153°21'1 1.2
2018-Apr-17 08:29S 27°38' E 153°22'1 2.2
2018-Apr-17 07:59S 27°39' E 153°21'0 0.7
2018-Apr-17 07:29S 27°38' E 153°21'0 0.2
2018-Apr-17 07:00S 27°38' E 153°21'0 0.6
2018-Apr-17 06:30S 27°39' E 153°21'0 0.1
2018-Apr-17 06:00S 27°39' E 153°21'0 0.0
2018-Apr-17 05:30S 27°39' E 153°21'1 1.9
2018-Apr-17 05:00S 27°38' E 153°22'0 0.8
2018-Apr-17 04:24S 27°38' E 153°21'2 4.3
2018-Apr-17 03:58S 27°38' E 153°24'2 3.2
2018-Apr-17 03:13S 27°39' E 153°21'2 7.0
2018-Apr-17 03:00S 27°38' E 153°22'3 4.6
2018-Apr-17 02:18S 27°37' E 153°19'412.5
2018-Apr-17 01:57S 27°38' E 153°23'4 6.7
2018-Apr-17 01:20S 27°37' E 153°19'412.2
2018-Apr-17 00:59S 27°38' E 153°23'4 3.5
2018-Apr-16 23:48S 27°37' E 153°19'413.0
2018-Apr-16 23:28S 27°38' E 153°23'2 2.2
2018-Apr-16 22:39S 27°38' E 153°21'1 3.4
2018-Apr-16 22:25S 27°38' E 153°22'3 6.1
2018-Apr-16 22:00S 27°37' E 153°19'3 5.5
2018-Apr-16 21:29S 27°38' E 153°22'3 3.2
2018-Apr-16 20:29S 27°37' E 153°19'3 6.0
2018-Apr-16 20:00S 27°38' E 153°22'3 4.2
2018-Apr-16 19:18S 27°37' E 153°19'3 9.9
2018-Apr-16 19:00S 27°38' E 153°22'1 0.1
2018-Apr-16 09:16S 27°38' E 153°23'  
Track history (hours):
 
Tides and Currents Weather Stations Pressure Air Temp Water Temp Dewpoint Dewpoint Depression Visibility Wind Speed Wind Dir Waves Ship Positions

Perulpa

Last reported at 2018-Apr-26 09:15 UTC. Time now 2018-Apr-26 19:09 UTC.
Position S 27°38' E 153°23'.

Length 24 m.

Type: Passenger vessel. MMSI: 503701100.

Date/timePositionNaut miles runAvg speedWind from/ knotsBaromVisibWave heightAir tempDewpointWater temp
2018-Apr-26 09:15S 27°38' E 153°23'2 2.8
2018-Apr-26 08:29S 27°39' E 153°21'0 0.5
2018-Apr-26 08:00S 27°38' E 153°21'0 0.7
2018-Apr-26 07:29S 27°39' E 153°21'2 0.6
2018-Apr-26 04:44S 27°38' E 153°19'2 5.2
2018-Apr-26 04:23S 27°38' E 153°21'1 0.2
2018-Apr-26 01:09S 27°38' E 153°21'0 1.0
2018-Apr-26 00:41S 27°39' E 153°21'1 5.9
2018-Apr-26 00:29S 27°38' E 153°22'3 2.8
2018-Apr-25 23:24S 27°37' E 153°19'3 8.7
2018-Apr-25 23:00S 27°38' E 153°23'3 5.0
2018-Apr-25 22:18S 27°37' E 153°19'3 8.3
2018-Apr-25 21:54S 27°38' E 153°23'2 0.1
2018-Apr-25 07:54S 27°39' E 153°21'1 1.0
2018-Apr-25 07:10S 27°39' E 153°22'0 1.4
2018-Apr-25 06:50S 27°38' E 153°22'1 0.3
2018-Apr-25 04:25S 27°39' E 153°21'1 0.8
2018-Apr-25 03:17S 27°38' E 153°22'1 0.2
2018-Apr-24 23:39S 27°38' E 153°21'1 4.8
2018-Apr-24 23:24S 27°38' E 153°22'0 0.1
2018-Apr-24 21:56S 27°38' E 153°22'0 0.0
2018-Apr-24 09:13S 27°38' E 153°22'2 6.3
2018-Apr-24 08:57S 27°38' E 153°21'0 0.3
2018-Apr-24 07:36S 27°39' E 153°21'110.6
2018-Apr-24 07:30S 27°38' E 153°22'1 2.3
2018-Apr-24 06:59S 27°38' E 153°21'1 2.2
2018-Apr-24 06:26S 27°39' E 153°22'1 1.4
2018-Apr-24 06:00S 27°38' E 153°21'1 1.5
2018-Apr-24 05:25S 27°38' E 153°22'2 2.9
2018-Apr-24 04:47S 27°38' E 153°20'2 1.0
2018-Apr-24 02:39S 27°38' E 153°22'1 0.9
2018-Apr-24 01:41S 27°38' E 153°21'2 5.5
2018-Apr-24 01:23S 27°38' E 153°23'4 7.4
2018-Apr-24 00:51S 27°37' E 153°19'4 8.7
2018-Apr-24 00:24S 27°38' E 153°23'1 1.1
2018-Apr-23 23:11S 27°39' E 153°22'2 8.4
2018-Apr-23 23:01S 27°38' E 153°23'2 2.3
2018-Apr-23 22:10S 27°38' E 153°21'2 9.2
2018-Apr-23 21:57S 27°38' E 153°23'4 6.1
2018-Apr-23 21:15S 27°37' E 153°19'3 9.3
2018-Apr-23 20:57S 27°38' E 153°22'0 0.0
2018-Apr-23 07:27S 27°38' E 153°21'1 1.6
2018-Apr-23 06:59S 27°39' E 153°21'2 3.2
2018-Apr-23 06:19S 27°38' E 153°23'2 5.6
2018-Apr-23 06:00S 27°38' E 153°21'1 1.2
2018-Apr-23 05:31S 27°39' E 153°21'1 1.9
2018-Apr-23 04:54S 27°38' E 153°22'1 0.6
2018-Apr-23 02:42S 27°38' E 153°23'2 6.0
2018-Apr-23 02:26S 27°38' E 153°22'1 1.1
2018-Apr-23 01:44S 27°39' E 153°21'1 1.2
2018-Apr-23 01:11S 27°39' E 153°22'1 0.9
2018-Apr-23 00:38S 27°38' E 153°21'0 3.4
2018-Apr-23 00:30S 27°38' E 153°22'1 0.5
2018-Apr-22 23:10S 27°38' E 153°22'1 2.5
2018-Apr-22 22:55S 27°38' E 153°22'1 1.9
2018-Apr-22 22:10S 27°39' E 153°21'1 4.7
2018-Apr-22 21:51S 27°38' E 153°22'1 1.3
2018-Apr-22 21:06S 27°38' E 153°21'2 0.1
2018-Apr-22 08:11S 27°38' E 153°23'1 0.8
2018-Apr-22 06:56S 27°38' E 153°22'1 0.8
2018-Apr-22 06:00S 27°39' E 153°22'3 5.4
2018-Apr-22 05:28S 27°37' E 153°19'3 5.4
2018-Apr-22 04:56S 27°38' E 153°22'0 0.8
2018-Apr-22 04:29S 27°38' E 153°22'0 0.5
2018-Apr-22 03:38S 27°38' E 153°21'1 2.0
2018-Apr-22 03:19S 27°38' E 153°22'1 1.4
2018-Apr-22 02:39S 27°39' E 153°21'210.7
2018-Apr-22 02:27S 27°38' E 153°24'2 2.8
2018-Apr-22 01:40S 27°39' E 153°21'1 3.9
2018-Apr-22 01:21S 27°38' E 153°22'3 5.3
2018-Apr-22 00:46S 27°37' E 153°19'413.4
2018-Apr-22 00:28S 27°39' E 153°23'2 2.2
2018-Apr-21 23:40S 27°39' E 153°21'1 4.7
2018-Apr-21 23:23S 27°38' E 153°22'1 1.3
2018-Apr-21 22:14S 27°39' E 153°21'1 5.4
2018-Apr-21 21:58S 27°38' E 153°22'2 2.2
2018-Apr-21 21:14S 27°39' E 153°21'2 7.5
2018-Apr-21 21:00S 27°38' E 153°23'1 0.1
2018-Apr-21 08:12S 27°38' E 153°23'2 6.3
2018-Apr-21 07:56S 27°38' E 153°22'0 0.4
2018-Apr-21 07:13S 27°38' E 153°21'1 4.3
2018-Apr-21 06:58S 27°38' E 153°22'2 1.0
2018-Apr-21 05:08S 27°38' E 153°20'1 9.8
2018-Apr-21 05:00S 27°38' E 153°22'0 0.1
2018-Apr-21 04:30S 27°38' E 153°22'1 1.3
2018-Apr-21 03:41S 27°39' E 153°21'210.5
2018-Apr-21 03:29S 27°38' E 153°23'1 1.7
2018-Apr-21 02:38S 27°39' E 153°22'0 1.0
2018-Apr-21 02:11S 27°38' E 153°22'1 1.5
2018-Apr-21 01:39S 27°39' E 153°21'1 5.3
2018-Apr-21 01:23S 27°38' E 153°22'2 1.5
2018-Apr-21 00:07S 27°38' E 153°20'1 2.3
2018-Apr-20 23:43S 27°39' E 153°21'2 7.3
2018-Apr-20 23:28S 27°39' E 153°23'4 3.9
2018-Apr-20 22:24S 27°37' E 153°19'3 7.6
2018-Apr-20 21:58S 27°38' E 153°22'3 5.3
2018-Apr-20 21:23S 27°37' E 153°19'410.9
2018-Apr-20 21:00S 27°38' E 153°23'  
2018-Apr-18 09:09S 27°38' E 153°22'1 7.2
2018-Apr-18 09:00S 27°38' E 153°21'0 0.2
2018-Apr-18 08:30S 27°38' E 153°21'1 1.1
2018-Apr-18 07:59S 27°38' E 153°21'0 0.8
2018-Apr-18 07:29S 27°39' E 153°21'0 0.2
2018-Apr-18 07:00S 27°39' E 153°21'1 1.5
2018-Apr-18 06:26S 27°38' E 153°22'1 2.4
2018-Apr-18 06:00S 27°39' E 153°21'0 0.3
2018-Apr-18 05:30S 27°39' E 153°21'1 2.2
2018-Apr-18 04:59S 27°38' E 153°22'1 1.8
2018-Apr-18 04:19S 27°39' E 153°21'2 1.3
2018-Apr-18 02:41S 27°38' E 153°23'1 6.6
2018-Apr-18 02:29S 27°38' E 153°22'1 0.9
2018-Apr-18 01:39S 27°39' E 153°21'1 6.1
2018-Apr-18 01:28S 27°38' E 153°22'1 1.4
2018-Apr-18 00:39S 27°39' E 153°21'2 6.8
2018-Apr-18 00:24S 27°38' E 153°23'2 1.4
2018-Apr-17 23:14S 27°39' E 153°21'1 4.8
2018-Apr-17 22:58S 27°38' E 153°22'1 1.8
2018-Apr-17 22:11S 27°39' E 153°21'2 7.5
2018-Apr-17 21:56S 27°38' E 153°23'2 2.5
2018-Apr-17 21:08S 27°39' E 153°21'1 7.2
2018-Apr-17 20:58S 27°38' E 153°22'1 0.1
2018-Apr-17 09:14S 27°38' E 153°23'2 7.5
2018-Apr-17 09:00S 27°38' E 153°21'1 1.2
2018-Apr-17 08:29S 27°38' E 153°22'1 2.2
2018-Apr-17 07:59S 27°39' E 153°21'0 0.7
2018-Apr-17 07:29S 27°38' E 153°21'0 0.2
2018-Apr-17 07:00S 27°38' E 153°21'0 0.6
2018-Apr-17 06:30S 27°39' E 153°21'0 0.1
2018-Apr-17 06:00S 27°39' E 153°21'0 0.0
2018-Apr-17 05:30S 27°39' E 153°21'1 1.9
2018-Apr-17 05:00S 27°38' E 153°22'0 0.8
2018-Apr-17 04:24S 27°38' E 153°21'2 4.3
2018-Apr-17 03:58S 27°38' E 153°24'2 3.2
2018-Apr-17 03:13S 27°39' E 153°21'2 7.0
2018-Apr-17 03:00S 27°38' E 153°22'3 4.6
2018-Apr-17 02:18S 27°37' E 153°19'412.5
2018-Apr-17 01:57S 27°38' E 153°23'4 6.7
2018-Apr-17 01:20S 27°37' E 153°19'412.2
2018-Apr-17 00:59S 27°38' E 153°23'4 3.5
2018-Apr-16 23:48S 27°37' E 153°19'413.0
2018-Apr-16 23:28S 27°38' E 153°23'2 2.2
2018-Apr-16 22:39S 27°38' E 153°21'1 3.4
2018-Apr-16 22:25S 27°38' E 153°22'3 6.1
2018-Apr-16 22:00S 27°37' E 153°19'3 5.5
2018-Apr-16 21:29S 27°38' E 153°22'3 3.2
2018-Apr-16 20:29S 27°37' E 153°19'3 6.0
2018-Apr-16 20:00S 27°38' E 153°22'3 4.2
2018-Apr-16 19:18S 27°37' E 153°19'3 9.9
2018-Apr-16 19:00S 27°38' E 153°22'1 0.1
2018-Apr-16 09:16S 27°38' E 153°23'  

Dump ship's entire track history